createdAt,value
2023-02-26T00:00:41.144Z,8.90
2023-02-26T00:03:43.162Z,8.27
2023-02-26T00:06:54.069Z,8.57
2023-02-26T00:10:01.467Z,7.70
2023-02-26T00:13:03.429Z,8.20
2023-02-26T00:16:10.838Z,8.20
2023-02-26T00:19:12.548Z,7.70
2023-02-26T00:22:14.323Z,7.27
2023-02-26T00:25:15.953Z,6.90
2023-02-26T00:28:17.773Z,7.30
2023-02-26T00:31:21.103Z,6.30
2023-02-26T00:34:22.990Z,5.57
2023-02-26T00:37:43.363Z,7.07
2023-02-26T00:40:46.473Z,5.70
2023-02-26T00:43:48.200Z,6.03
2023-02-26T00:46:54.397Z,6.37
2023-02-26T00:50:14.873Z,6.50
2023-02-26T00:53:19.226Z,6.47
2023-02-26T00:56:20.809Z,5.77
2023-02-26T00:59:22.538Z,6.20
2023-02-26T01:02:24.192Z,7.33
2023-02-26T01:05:26.404Z,6.93
2023-02-26T01:08:33.916Z,7.43
2023-02-26T01:11:36.287Z,6.83
2023-02-26T01:14:38.164Z,6.77
2023-02-26T01:17:43.002Z,6.70
2023-02-26T01:20:47.222Z,6.73
2023-02-26T01:23:50.316Z,6.23
2023-02-26T01:26:52.909Z,6.87
2023-02-26T01:29:54.762Z,6.47
2023-02-26T01:33:02.744Z,6.67
2023-02-26T01:36:24.940Z,6.27
2023-02-26T01:39:26.806Z,6.40
2023-02-26T01:42:31.469Z,6.70
2023-02-26T01:45:35.296Z,6.80
2023-02-26T01:48:48.745Z,6.67
2023-02-26T01:51:52.630Z,5.63
2023-02-26T01:54:54.201Z,7.20
2023-02-26T01:57:57.528Z,5.93
2023-02-26T02:00:59.321Z,8.57
2023-02-26T02:04:00.971Z,7.80
2023-02-26T02:07:03.744Z,6.67
2023-02-26T02:10:05.530Z,6.97
2023-02-26T02:13:14.779Z,7.40
2023-02-26T02:16:19.417Z,7.23
2023-02-26T02:19:21.048Z,6.33
2023-02-26T02:22:41.726Z,6.80
2023-02-26T02:26:02.206Z,6.53
2023-02-26T02:29:36.166Z,5.87
2023-02-26T02:32:49.657Z,6.50
2023-02-26T02:35:54.525Z,7.10
2023-02-26T02:39:02.055Z,6.63
2023-02-26T02:42:16.033Z,7.00
2023-02-26T02:45:20.801Z,7.00
2023-02-26T02:48:38.933Z,6.80
2023-02-26T02:51:52.390Z,6.97
2023-02-26T02:54:53.921Z,7.37
2023-02-26T02:58:01.839Z,7.40
2023-02-26T03:01:06.774Z,7.00
2023-02-26T03:04:09.833Z,7.97
2023-02-26T03:07:11.667Z,7.33
2023-02-26T03:10:14.109Z,7.70
2023-02-26T03:13:17.606Z,5.57
2023-02-26T03:16:38.244Z,6.33
2023-02-26T03:19:58.854Z,6.27
2023-02-26T03:23:14.599Z,7.37
2023-02-26T03:26:21.427Z,7.03
2023-02-26T03:29:29.759Z,7.13
2023-02-26T03:32:34.464Z,7.40
2023-02-26T03:35:40.086Z,6.30
2023-02-26T03:38:46.834Z,6.83
2023-02-26T03:42:11.246Z,6.77
2023-02-26T03:45:26.872Z,7.23
2023-02-26T03:48:30.510Z,7.00
2023-02-26T03:51:33.843Z,5.80
2023-02-26T03:55:15.314Z,6.10
2023-02-26T03:58:32.779Z,7.10
2023-02-26T04:01:54.957Z,7.57
2023-02-26T04:05:09.282Z,7.10
2023-02-26T04:08:10.966Z,6.33
2023-02-26T04:11:17.340Z,6.27
2023-02-26T04:14:19.386Z,5.20
2023-02-26T04:17:21.041Z,6.47
2023-02-26T04:20:22.681Z,6.50
2023-02-26T04:23:24.412Z,6.67
2023-02-26T04:26:26.804Z,7.17
2023-02-26T04:29:28.768Z,7.10
2023-02-26T04:32:30.510Z,7.43
2023-02-26T04:35:32.192Z,7.57
2023-02-26T04:38:33.989Z,7.13
2023-02-26T04:41:35.712Z,6.57
2023-02-26T04:44:37.330Z,6.47
2023-02-26T04:47:38.983Z,6.40
2023-02-26T04:50:40.909Z,6.00
2023-02-26T04:53:42.708Z,7.27
2023-02-26T04:56:45.044Z,6.23
2023-02-26T04:59:46.799Z,6.67
2023-02-26T05:02:48.539Z,7.03
2023-02-26T05:05:50.230Z,6.60
2023-02-26T05:08:51.910Z,6.20
2023-02-26T05:11:54.729Z,6.00
2023-02-26T05:14:57.429Z,6.67
2023-02-26T05:17:59.095Z,6.90
2023-02-26T05:21:00.856Z,6.80
2023-02-26T05:24:02.462Z,7.83
2023-02-26T05:27:05.236Z,7.30
2023-02-26T05:30:08.934Z,6.50
2023-02-26T05:33:11.731Z,6.97
2023-02-26T05:36:13.710Z,8.53
2023-02-26T05:39:15.385Z,7.60
2023-02-26T05:42:17.403Z,7.43
2023-02-26T05:45:19.418Z,8.53
2023-02-26T05:48:21.330Z,8.57
2023-02-26T05:51:22.915Z,7.93
2023-02-26T05:54:24.620Z,7.97
2023-02-26T05:57:27.859Z,8.03
2023-02-26T06:00:29.599Z,7.67
2023-02-26T06:03:31.201Z,8.17
2023-02-26T06:06:33.120Z,8.17
2023-02-26T06:09:34.756Z,7.27
2023-02-26T06:12:36.594Z,8.10
2023-02-26T06:15:38.417Z,7.60
2023-02-26T06:18:40.131Z,8.07
2023-02-26T06:21:41.805Z,7.07
2023-02-26T06:24:43.509Z,7.80
2023-02-26T06:27:46.149Z,7.47
2023-02-26T06:30:47.913Z,7.90
2023-02-26T06:33:49.656Z,7.00
2023-02-26T06:36:52.096Z,7.30
2023-02-26T06:39:53.692Z,7.57
2023-02-26T06:42:55.359Z,7.57
2023-02-26T06:45:57.826Z,7.73
2023-02-26T06:49:00.416Z,7.60
2023-02-26T06:52:02.134Z,7.47
2023-02-26T06:55:04.228Z,6.77
2023-02-26T06:58:05.882Z,7.57
2023-02-26T07:01:13.227Z,7.10
2023-02-26T07:04:20.298Z,9.10
2023-02-26T07:07:22.205Z,8.43
2023-02-26T07:10:25.189Z,8.27
2023-02-26T07:13:26.936Z,10.20
2023-02-26T07:16:28.956Z,10.40
2023-02-26T07:19:30.994Z,11.00
2023-02-26T07:22:33.496Z,11.97
2023-02-26T07:25:38.025Z,11.63
2023-02-26T07:28:39.848Z,10.83
2023-02-26T07:31:41.724Z,11.77
2023-02-26T07:34:43.552Z,12.30
2023-02-26T07:37:45.331Z,10.40
2023-02-26T07:40:47.532Z,10.50
2023-02-26T07:43:49.711Z,9.70
2023-02-26T07:46:51.341Z,9.77
2023-02-26T07:49:52.888Z,10.17
2023-02-26T07:52:54.521Z,12.77
2023-02-26T07:55:56.207Z,9.70
2023-02-26T07:58:57.815Z,9.07
2023-02-26T08:01:59.372Z,8.97
2023-02-26T08:05:00.980Z,8.83
2023-02-26T08:08:03.377Z,8.40
2023-02-26T08:11:04.933Z,6.67
2023-02-26T08:14:07.221Z,7.57
2023-02-26T08:17:09.559Z,7.43
2023-02-26T08:20:12.041Z,5.50
2023-02-26T08:23:13.646Z,6.60
2023-02-26T08:26:15.235Z,8.17
2023-02-26T08:29:16.866Z,6.50
2023-02-26T08:32:20.011Z,6.27
2023-02-26T08:35:21.819Z,6.63
2023-02-26T08:38:23.398Z,6.40
2023-02-26T08:41:27.689Z,7.50
2023-02-26T08:44:29.471Z,6.07
2023-02-26T08:47:31.972Z,6.57
2023-02-26T08:50:33.678Z,3.53
2023-02-26T08:53:35.390Z,6.80
2023-02-26T08:56:37.039Z,6.70
2023-02-26T08:59:38.694Z,5.77
2023-02-26T09:02:40.456Z,5.70
2023-02-26T09:05:42.955Z,7.20
2023-02-26T09:08:44.560Z,5.07
2023-02-26T09:11:46.159Z,6.07
2023-02-26T09:14:47.843Z,5.93
2023-02-26T09:17:49.624Z,6.60
2023-02-26T09:20:51.390Z,6.37
2023-02-26T09:23:52.976Z,5.37
2023-02-26T09:26:54.653Z,5.87
2023-02-26T09:29:56.394Z,6.27
2023-02-26T09:32:58.221Z,5.80
2023-02-26T09:35:59.968Z,4.87
2023-02-26T09:39:01.621Z,5.47
2023-02-26T09:42:09.000Z,5.87
2023-02-26T09:45:13.683Z,4.57
2023-02-26T09:48:18.495Z,5.60
2023-02-26T09:51:21.618Z,5.93
2023-02-26T09:54:24.833Z,5.93
2023-02-26T09:57:29.402Z,10.77
2023-02-26T10:00:42.934Z,5.07
2023-02-26T10:03:47.641Z,5.80
2023-02-26T10:06:52.281Z,6.10
2023-02-26T10:10:16.290Z,5.73
2023-02-26T10:13:25.146Z,5.67
2023-02-26T10:16:28.255Z,5.67
2023-02-26T10:19:37.339Z,5.27
2023-02-26T10:22:59.394Z,5.70
2023-02-26T10:26:13.450Z,7.40
2023-02-26T10:29:23.003Z,6.07
2023-02-26T10:32:28.678Z,6.47
2023-02-26T10:35:33.151Z,5.53
2023-02-26T10:38:34.806Z,7.93
2023-02-26T10:41:36.984Z,6.07
2023-02-26T10:44:44.845Z,5.77
2023-02-26T10:47:52.275Z,6.27
2023-02-26T10:50:56.536Z,6.13
2023-02-26T10:54:00.110Z,5.40
2023-02-26T10:57:01.901Z,5.87
2023-02-26T11:00:05.282Z,5.63
2023-02-26T11:03:08.204Z,4.20
2023-02-26T11:06:12.075Z,4.93
2023-02-26T11:09:25.144Z,5.77
2023-02-26T11:12:26.968Z,5.33
2023-02-26T11:15:28.733Z,5.10
2023-02-26T11:18:32.874Z,5.23
2023-02-26T11:21:41.379Z,5.53
2023-02-26T11:24:49.062Z,5.07
2023-02-26T11:27:53.583Z,4.53
2023-02-26T11:30:57.480Z,4.60
2023-02-26T11:34:03.461Z,5.13
2023-02-26T11:37:05.589Z,5.70
2023-02-26T11:40:23.388Z,5.67
2023-02-26T11:43:28.412Z,5.43
2023-02-26T11:46:30.491Z,5.03
2023-02-26T11:49:32.470Z,6.03
2023-02-26T11:52:44.741Z,5.50
2023-02-26T11:55:50.321Z,5.07
2023-02-26T11:58:54.409Z,5.13
2023-02-26T12:02:01.672Z,4.43
2023-02-26T12:05:07.783Z,4.57
2023-02-26T12:08:30.242Z,5.17
2023-02-26T12:11:46.826Z,6.20
2023-02-26T12:14:53.031Z,5.07
2023-02-26T12:17:54.682Z,5.03
2023-02-26T12:20:59.508Z,5.33
2023-02-26T12:24:20.537Z,4.77
2023-02-26T12:27:40.968Z,5.07
2023-02-26T12:30:55.405Z,6.40
2023-02-26T12:34:12.482Z,5.80
2023-02-26T12:37:14.080Z,5.67
2023-02-26T12:40:24.577Z,5.33
2023-02-26T12:43:45.889Z,4.30
2023-02-26T12:46:50.596Z,4.63
2023-02-26T12:49:52.319Z,4.93
2023-02-26T12:53:14.335Z,4.17
2023-02-26T12:56:15.930Z,5.17
2023-02-26T12:59:20.640Z,3.87
2023-02-26T13:02:31.600Z,5.40
2023-02-26T13:05:51.964Z,5.17
2023-02-26T13:09:15.332Z,5.93
2023-02-26T13:12:28.034Z,5.47
2023-02-26T13:15:40.678Z,5.70
2023-02-26T13:18:59.737Z,5.53
2023-02-26T13:22:05.250Z,6.73
2023-02-26T13:25:08.602Z,5.70
2023-02-26T13:28:21.572Z,5.53
2023-02-26T13:31:30.422Z,5.40
2023-02-26T13:34:44.054Z,4.13
2023-02-26T13:37:52.958Z,4.57
2023-02-26T13:41:18.009Z,3.80
2023-02-26T13:44:19.580Z,4.60
2023-02-26T13:47:21.230Z,5.57
2023-02-26T13:50:45.372Z,5.83
2023-02-26T13:53:49.451Z,5.43
2023-02-26T13:56:56.527Z,5.90
2023-02-26T14:00:13.448Z,5.73
2023-02-26T14:03:18.113Z,4.80
2023-02-26T14:06:23.511Z,4.70
2023-02-26T14:09:28.354Z,4.93
2023-02-26T14:12:37.934Z,5.60
2023-02-26T14:15:42.136Z,5.67
2023-02-26T14:18:47.023Z,4.97
2023-02-26T14:21:51.299Z,6.43
2023-02-26T14:25:12.251Z,5.20
2023-02-26T14:28:21.401Z,6.03
2023-02-26T14:31:45.493Z,5.80
2023-02-26T14:34:50.839Z,5.10
2023-02-26T14:38:12.978Z,5.20
2023-02-26T14:41:27.296Z,5.67
2023-02-26T14:44:31.203Z,6.20
2023-02-26T14:47:32.983Z,6.20
2023-02-26T14:50:48.724Z,5.27
2023-02-26T14:53:59.646Z,4.93
2023-02-26T14:57:04.544Z,5.10
2023-02-26T15:00:13.374Z,4.13
2023-02-26T15:03:18.153Z,5.20
2023-02-26T15:06:33.635Z,6.90
2023-02-26T15:09:54.839Z,4.53
2023-02-26T15:13:00.601Z,4.37
2023-02-26T15:16:09.977Z,5.13
2023-02-26T15:19:32.652Z,5.60
2023-02-26T15:22:46.399Z,5.50
2023-02-26T15:25:49.192Z,4.57
2023-02-26T15:28:51.786Z,5.70
2023-02-26T15:31:55.431Z,5.50
2023-02-26T15:35:01.907Z,5.57
2023-02-26T15:38:04.397Z,4.33
2023-02-26T15:41:06.193Z,6.07
2023-02-26T15:44:14.892Z,5.77
2023-02-26T15:47:17.524Z,6.73
2023-02-26T15:50:19.245Z,6.20
2023-02-26T15:53:30.009Z,6.77
2023-02-26T15:56:34.037Z,6.63
2023-02-26T15:59:42.005Z,6.07
2023-02-26T16:02:45.615Z,7.13
2023-02-26T16:05:48.595Z,6.47
2023-02-26T16:08:50.406Z,7.10
2023-02-26T16:11:53.428Z,5.23
2023-02-26T16:14:57.237Z,5.40
2023-02-26T16:18:00.511Z,6.23
2023-02-26T16:21:04.327Z,5.20
2023-02-26T16:24:08.557Z,5.93
2023-02-26T16:27:13.266Z,5.60
2023-02-26T16:30:17.948Z,6.33
2023-02-26T16:33:21.545Z,6.00
2023-02-26T16:36:26.300Z,5.80
2023-02-26T16:39:30.580Z,6.00
2023-02-26T16:42:36.211Z,6.23
2023-02-26T16:45:37.861Z,6.40
2023-02-26T16:48:48.337Z,5.53
2023-02-26T16:51:50.727Z,4.40
2023-02-26T16:55:03.234Z,6.83
2023-02-26T16:58:07.619Z,8.47
2023-02-26T17:01:13.463Z,5.83
2023-02-26T17:04:16.309Z,6.57
2023-02-26T17:07:31.066Z,5.27
2023-02-26T17:10:34.485Z,6.77
2023-02-26T17:13:37.548Z,7.10
2023-02-26T17:16:39.289Z,6.10
2023-02-26T17:19:41.041Z,6.13
2023-02-26T17:22:44.090Z,6.13
2023-02-26T17:25:49.802Z,7.40
2023-02-26T17:28:51.358Z,7.20
2023-02-26T17:31:53.065Z,6.20
2023-02-26T17:34:54.832Z,5.20
2023-02-26T17:37:57.145Z,5.93
2023-02-26T17:40:58.941Z,6.70
2023-02-26T17:44:00.806Z,5.90
2023-02-26T17:47:02.406Z,5.60
2023-02-26T17:50:11.429Z,5.53
2023-02-26T17:53:19.566Z,4.47
2023-02-26T17:56:26.689Z,5.37
2023-02-26T17:59:28.957Z,5.87
2023-02-26T18:02:30.616Z,4.53
2023-02-26T18:05:40.942Z,4.67
2023-02-26T18:08:42.810Z,4.70
2023-02-26T18:11:44.455Z,5.40
2023-02-26T18:14:46.489Z,5.53
2023-02-26T18:17:48.128Z,5.07
2023-02-26T18:20:49.813Z,4.20
2023-02-26T18:23:51.478Z,4.70
2023-02-26T18:26:53.123Z,4.00
2023-02-26T18:29:59.323Z,5.10
2023-02-26T18:33:01.196Z,5.70
2023-02-26T18:36:03.138Z,5.77
2023-02-26T18:39:06.383Z,5.40
2023-02-26T18:42:13.583Z,5.47
2023-02-26T18:45:15.572Z,5.90
2023-02-26T18:48:20.814Z,6.80
2023-02-26T18:51:22.473Z,7.93
2023-02-26T18:54:24.103Z,6.30
2023-02-26T18:57:25.735Z,5.60
2023-02-26T19:00:28.863Z,5.40
2023-02-26T19:03:30.794Z,6.17
2023-02-26T19:06:32.620Z,5.53
2023-02-26T19:09:35.230Z,5.30
2023-02-26T19:12:37.297Z,5.60
2023-02-26T19:15:39.058Z,6.50
2023-02-26T19:18:40.879Z,6.23
2023-02-26T19:21:42.529Z,4.73
2023-02-26T19:24:44.178Z,5.97
2023-02-26T19:27:45.823Z,4.37
2023-02-26T19:30:48.913Z,5.43
2023-02-26T19:33:50.588Z,5.93
2023-02-26T19:36:53.432Z,6.23
2023-02-26T19:39:55.159Z,6.67
2023-02-26T19:42:57.076Z,4.97
2023-02-26T19:45:58.777Z,7.00
2023-02-26T19:49:03.248Z,5.47
2023-02-26T19:52:04.933Z,5.53
2023-02-26T19:55:07.585Z,5.67
2023-02-26T19:58:09.301Z,5.77
2023-02-26T20:01:11.183Z,6.73
2023-02-26T20:04:15.936Z,5.73
2023-02-26T20:07:17.686Z,10.27
2023-02-26T20:10:23.619Z,6.10
2023-02-26T20:13:31.135Z,5.90
2023-02-26T20:16:33.069Z,4.70
2023-02-26T20:19:34.877Z,5.13
2023-02-26T20:22:36.670Z,5.00
2023-02-26T20:25:38.527Z,6.20
2023-02-26T20:28:44.380Z,5.43
2023-02-26T20:31:49.520Z,5.77
2023-02-26T20:34:52.255Z,6.10
2023-02-26T20:37:55.846Z,5.30
2023-02-26T20:40:57.995Z,5.70
2023-02-26T20:43:59.670Z,4.80
2023-02-26T20:47:02.658Z,5.40
2023-02-26T20:50:04.580Z,5.53
2023-02-26T20:53:07.264Z,6.30
2023-02-26T20:56:09.286Z,5.80
2023-02-26T20:59:11.073Z,5.33
2023-02-26T21:02:15.474Z,8.83
2023-02-26T21:05:17.493Z,5.20
2023-02-26T21:08:19.345Z,5.77
2023-02-26T21:11:21.095Z,5.43
2023-02-26T21:14:24.504Z,5.87
2023-02-26T21:17:26.942Z,4.97
2023-02-26T21:20:28.698Z,5.23
2023-02-26T21:23:30.930Z,4.93
2023-02-26T21:26:34.337Z,4.93
2023-02-26T21:29:36.926Z,6.17
2023-02-26T21:32:39.176Z,6.00
2023-02-26T21:35:41.313Z,5.53
2023-02-26T21:38:45.840Z,5.47
2023-02-26T21:41:47.473Z,5.07
2023-02-26T21:44:50.920Z,5.07
2023-02-26T21:47:52.523Z,5.27
2023-02-26T21:50:56.563Z,5.03
2023-02-26T21:53:58.315Z,5.27
2023-02-26T21:57:00.145Z,5.57
2023-02-26T22:00:06.266Z,5.67
2023-02-26T22:03:14.936Z,5.00
2023-02-26T22:06:17.422Z,6.17
2023-02-26T22:09:19.424Z,5.67
2023-02-26T22:12:21.102Z,4.80
2023-02-26T22:15:22.715Z,5.77
2023-02-26T22:18:24.335Z,4.93
2023-02-26T22:21:26.387Z,5.40
2023-02-26T22:24:28.303Z,5.43
2023-02-26T22:27:29.889Z,5.77
2023-02-26T22:30:31.673Z,5.20
2023-02-26T22:33:33.277Z,6.00
2023-02-26T22:36:36.331Z,4.70
2023-02-26T22:39:38.013Z,6.10
2023-02-26T22:42:43.626Z,5.27
2023-02-26T22:45:45.720Z,6.03
2023-02-26T22:48:47.351Z,5.23
2023-02-26T22:51:48.949Z,5.37
2023-02-26T22:54:50.666Z,5.20
2023-02-26T22:57:52.280Z,5.50
2023-02-26T23:01:00.998Z,5.83
2023-02-26T23:04:02.761Z,6.00
2023-02-26T23:07:04.454Z,5.07
2023-02-26T23:10:07.654Z,4.60
2023-02-26T23:13:09.244Z,4.90
2023-02-26T23:16:11.587Z,4.97
2023-02-26T23:19:13.350Z,5.27
2023-02-26T23:22:15.072Z,5.80
2023-02-26T23:25:16.714Z,5.57
2023-02-26T23:28:18.616Z,5.57
2023-02-26T23:31:20.429Z,5.70
2023-02-26T23:34:22.063Z,5.60
2023-02-26T23:37:23.766Z,5.63
2023-02-26T23:40:25.486Z,5.57
2023-02-26T23:43:27.251Z,4.87
2023-02-26T23:46:28.956Z,5.40
2023-02-26T23:49:30.695Z,5.83
2023-02-26T23:52:32.850Z,5.43
2023-02-26T23:55:34.427Z,5.83
2023-02-26T23:58:36.025Z,5.53
